Time;durP1;ratioP1;P1;durP2;ratioP2;P2;SDS_P1;SDS_P2;PMS_P1;PMS_P2;Temp;Humidity;BMP_temperature;BMP_pressure;BME280_temperature;BME280_humidity;BME280_pressure;Samples;Min_cycle;Max_cycle;Signal;HPM_P1;HPM_P2
2022/02/10 00:05:40;;;;;;;30.53;24.77;;;6.60;99.90;;;;;;5065593;28;20529;-72
2022/02/10 00:13:58;;;;;;;45.50;25.47;;;6.10;99.90;;;;;;5074496;28;20475;-71
2022/02/10 00:19:38;;;;;;;28.87;25.93;;;6.00;99.90;;;;;;5069831;28;21566;-69
2022/02/10 00:22:12;;;;;;;27.23;24.30;;;6.00;99.90;;;;;;5062322;28;20568;-69
2022/02/10 00:25:15;;;;;;;31.17;25.07;;;6.00;99.90;;;;;;5064498;28;20465;-70
2022/02/10 00:35:53;;;;;;;34.70;26.67;;;5.70;99.90;;;;;;5057922;28;20458;-69
2022/02/10 00:38:23;;;;;;;45.43;27.60;;;5.60;99.90;;;;;;5062429;28;20466;-72
2022/02/10 00:40:50;;;;;;;32.27;27.50;;;5.50;99.90;;;;;;5057215;28;21017;-69
2022/02/10 00:43:17;;;;;;;31.83;27.13;;;5.50;99.90;;;;;;5061197;28;20463;-69
2022/02/10 00:45:44;;;;;;;31.17;27.90;;;5.40;99.90;;;;;;5059439;28;20470;-71
2022/02/10 00:48:12;;;;;;;39.63;29.37;;;5.40;99.90;;;;;;5064879;28;20454;-71
2022/02/10 00:50:40;;;;;;;32.33;28.90;;;5.30;99.90;;;;;;5061103;28;20532;-68
2022/02/10 00:53:13;;;;;;;32.80;29.53;;;5.30;99.90;;;;;;5061267;28;20462;-71
2022/02/10 00:55:42;;;;;;;33.87;28.57;;;5.20;99.90;;;;;;5060375;28;21160;-69
2022/02/10 00:58:12;;;;;;;33.20;28.33;;;5.10;99.90;;;;;;5059301;28;20452;-72
2022/02/10 01:24:26;;;;;;;33.17;29.77;;;4.80;99.90;;;;;;5054453;28;20528;-69
2022/02/10 01:31:04;;;;;;;31.80;27.40;;;5.50;99.90;;;;;;5060017;28;20582;-69
2022/02/10 01:33:33;;;;;;;30.67;27.67;;;5.60;99.90;;;;;;5061873;28;20472;-69
2022/02/10 01:36:00;;;;;;;27.60;24.70;;;5.60;99.90;;;;;;5063868;28;20468;-69
2022/02/10 01:38:27;;;;;;;35.23;26.03;;;5.70;99.90;;;;;;5057986;28;20463;-69
2022/02/10 01:41:27;;;;;;;29.10;26.30;;;5.80;99.90;;;;;;5054629;28;20492;-69
2022/02/10 01:58:02;;;;;;;26.23;23.77;;;5.90;99.90;;;;;;5049439;28;20502;-73
2022/02/10 02:03:21;;;;;;;28.47;25.00;;;6.00;99.90;;;;;;5051748;28;20996;-70
2022/02/10 02:05:53;;;;;;;26.53;24.10;;;6.10;99.90;;;;;;5052918;28;20554;-69
2022/02/10 02:08:24;;;;;;;26.47;23.80;;;6.10;99.90;;;;;;5051341;28;20889;-69
2022/02/10 02:10:51;;;;;;;26.37;23.63;;;6.10;99.90;;;;;;5052294;28;20644;-69
2022/02/10 02:13:19;;;;;;;24.10;21.87;;;6.10;99.90;;;;;;5047598;28;20521;-69
2022/02/10 02:15:46;;;;;;;25.60;23.20;;;6.10;99.90;;;;;;5050821;28;20553;-69
2022/02/10 02:18:13;;;;;;;25.17;22.50;;;6.00;99.90;;;;;;5048485;28;20466;-69
2022/02/10 02:20:40;;;;;;;24.83;22.57;;;6.00;99.90;;;;;;5045954;28;20463;-69
2022/02/10 02:23:08;;;;;;;24.13;21.73;;;5.90;99.90;;;;;;5050006;28;20470;-69
2022/02/10 02:25:35;;;;;;;25.73;22.77;;;5.90;99.90;;;;;;5050296;28;20475;-69
2022/02/10 02:28:07;;;;;;;26.07;23.87;;;5.80;99.90;;;;;;5049685;28;20462;-69
2022/02/10 02:30:39;;;;;;;24.53;22.43;;;5.70;99.90;;;;;;5055245;28;21011;-69
2022/02/10 02:36:11;;;;;;;25.83;23.17;;;5.60;99.90;;;;;;5047035;28;20467;-69
2022/02/10 02:38:55;;;;;;;25.57;23.17;;;5.40;99.90;;;;;;5058242;28;20463;-70
2022/02/10 03:06:16;;;;;;;24.60;22.50;;;4.50;99.90;;;;;;5054235;28;20860;-70
2022/02/10 03:08:47;;;;;;;25.50;23.20;;;4.50;99.90;;;;;;5045497;28;20475;-70
2022/02/10 03:11:16;;;;;;;27.73;25.33;;;4.30;99.90;;;;;;5044246;28;20510;-72
2022/02/10 03:13:48;;;;;;;26.33;23.93;;;4.30;99.90;;;;;;5052509;28;20944;-71
2022/02/10 03:16:39;;;;;;;25.10;22.60;;;4.30;99.90;;;;;;5046481;28;20460;-72
2022/02/10 03:19:20;;;;;;;25.27;23.00;;;4.30;99.90;;;;;;5049951;28;20557;-72
2022/02/10 03:22:08;;;;;;;23.87;21.93;;;4.30;99.90;;;;;;5049601;28;20456;-69
2022/02/10 04:00:47;;;;;;;31.00;25.10;;;4.50;99.90;;;;;;5053243;28;21141;-70
2022/02/10 04:03:42;;;;;;;49.43;27.10;;;4.60;99.90;;;;;;5055508;28;20455;-68
2022/02/10 04:06:25;;;;;;;38.53;25.70;;;4.70;99.90;;;;;;5048236;28;20500;-69
2022/02/10 04:11:50;;;;;;;32.10;25.20;;;4.60;99.90;;;;;;5047927;28;20497;-70
2022/02/10 04:14:23;;;;;;;30.50;24.63;;;4.50;99.90;;;;;;5048255;28;20479;-71
2022/02/10 04:17:07;;;;;;;27.07;24.10;;;4.40;99.90;;;;;;5056565;28;20463;-71
2022/02/10 04:19:53;;;;;;;34.93;24.67;;;4.40;99.90;;;;;;5054586;28;20467;-71
2022/02/10 04:22:26;;;;;;;27.60;23.17;;;4.20;99.90;;;;;;5051544;28;20468;-70
2022/02/10 04:25:18;;;;;;;26.57;22.63;;;4.10;99.90;;;;;;5053781;28;20564;-70
2022/02/10 04:28:04;;;;;;;25.83;23.10;;;3.90;99.90;;;;;;5054471;28;20949;-71
2022/02/10 04:30:54;;;;;;;27.20;24.30;;;3.80;99.90;;;;;;5049678;28;20503;-71
2022/02/10 04:45:27;;;;;;;25.73;23.50;;;4.20;99.90;;;;;;5045802;28;20543;-70
2022/02/10 04:53:57;;;;;;;23.87;22.07;;;4.50;99.90;;;;;;5052327;28;20465;-71
2022/02/10 04:56:35;;;;;;;24.40;22.20;;;4.60;99.90;;;;;;5058020;28;20480;-70
2022/02/10 04:59:18;;;;;;;23.30;21.20;;;4.70;99.90;;;;;;5045235;28;20562;-68
2022/02/10 05:02:02;;;;;;;24.67;22.60;;;4.80;99.90;;;;;;5030788;28;20529;-69
2022/02/10 05:07:58;;;;;;;23.70;21.73;;;5.00;99.90;;;;;;5039370;28;21038;-69
2022/02/10 05:18:58;;;;;;;22.00;20.40;;;5.30;99.90;;;;;;5029290;28;20968;-71
2022/02/10 05:21:54;;;;;;;24.30;21.57;;;5.30;99.90;;;;;;5028287;28;20464;-71
2022/02/10 05:24:40;;;;;;;23.30;21.43;;;5.20;99.90;;;;;;5028980;28;20555;-71
2022/02/10 05:32:53;;;;;;;23.63;21.50;;;5.30;99.90;;;;;;5029427;28;20500;-71
2022/02/10 05:35:27;;;;;;;23.73;21.30;;;5.30;99.90;;;;;;5028546;28;20962;-70
2022/02/10 05:38:02;;;;;;;25.40;21.37;;;5.30;99.90;;;;;;5029714;28;20572;-70
2022/02/10 05:41:06;;;;;;;23.80;21.67;;;5.40;99.90;;;;;;5027047;28;20463;-70
2022/02/10 05:43:39;;;;;;;24.03;22.13;;;5.30;99.90;;;;;;5029067;28;20631;-70
2022/02/10 05:46:15;;;;;;;24.97;23.07;;;5.40;99.90;;;;;;5028692;28;21285;-70
2022/02/10 05:49:20;;;;;;;24.33;22.30;;;5.40;99.90;;;;;;5028707;28;21039;-70
2022/02/10 05:54:44;;;;;;;30.17;23.50;;;5.60;99.90;;;;;;5045700;28;20803;-70
2022/02/10 05:57:30;;;;;;;25.57;23.17;;;5.70;99.90;;;;;;5054982;28;20464;-70
2022/02/10 06:00:36;;;;;;;25.70;23.60;;;5.70;99.90;;;;;;5052495;28;20845;-70
2022/02/10 06:53:18;;;;;;;25.10;22.80;;;5.80;99.90;;;;;;5018753;28;20482;-70
2022/02/10 07:04:28;;;;;;;25.60;23.00;;;6.10;99.90;;;;;;5025650;28;20501;-73
2022/02/10 07:07:19;;;;;;;26.27;23.37;;;6.20;99.90;;;;;;5026122;28;20462;-71
2022/02/10 07:16:12;;;;;;;27.83;25.00;;;6.30;99.90;;;;;;4997914;27;21638;-71
2022/02/10 07:47:00;;;;;;;27.27;24.33;;;6.60;99.90;;;;;;4993096;28;20461;-72
2022/02/10 07:49:56;;;;;;;26.07;23.50;;;6.40;99.90;;;;;;4984345;28;20460;-73
2022/02/10 07:52:39;;;;;;;26.13;23.47;;;6.50;99.90;;;;;;4990387;28;20474;-71
2022/02/10 07:58:15;;;;;;;26.37;23.63;;;6.40;99.90;;;;;;5026221;28;20909;-70
2022/02/10 08:04:10;;;;;;;26.23;23.77;;;6.30;99.90;;;;;;4989464;28;20536;-69
2022/02/10 08:50:53;;;;;;;27.20;24.30;;;7.40;99.90;;;;;;4973505;28;20466;-72
2022/02/10 08:56:30;;;;;;;23.67;21.43;;;7.50;99.90;;;;;;4973617;28;20455;-71
2022/02/10 08:59:23;;;;;;;27.57;23.57;;;7.50;99.90;;;;;;4973809;28;20461;-69
2022/02/10 09:02:10;;;;;;;23.97;21.00;;;7.40;99.90;;;;;;4974092;28;20841;-69
2022/02/10 09:04:48;;;;;;;30.90;24.30;;;7.50;99.90;;;;;;4975404;28;20471;-69
2022/02/10 09:16:05;;;;;;;23.77;21.23;;;8.00;99.90;;;;;;4971062;28;20459;-69
2022/02/10 10:00:14;;;;;;;21.73;19.83;;;8.30;99.90;;;;;;4975345;28;21328;-71
2022/02/10 10:02:47;;;;;;;21.87;19.47;;;8.20;99.90;;;;;;4973926;28;21363;-69
2022/02/10 10:05:25;;;;;;;28.27;21.40;;;8.30;99.90;;;;;;4986540;28;20552;-68
2022/02/10 10:08:13;;;;;;;25.77;23.07;;;8.30;99.90;;;;;;4976744;28;20537;-70
2022/02/10 10:11:07;;;;;;;33.57;30.37;;;8.30;99.90;;;;;;4970225;28;20476;-70
2022/02/10 10:14:06;;;;;;;36.40;32.80;;;8.40;99.90;;;;;;4973192;28;20508;-70
2022/02/10 10:16:45;;;;;;;35.20;31.70;;;8.30;99.90;;;;;;4975383;28;20477;-69
2022/02/10 10:22:07;;;;;;;33.60;30.60;;;8.50;99.90;;;;;;4972850;28;20490;-70
2022/02/10 10:24:55;;;;;;;35.43;32.27;;;8.50;99.90;;;;;;4973859;28;20953;-68
2022/02/10 10:27:44;;;;;;;40.37;36.20;;;8.30;99.90;;;;;;4974072;28;20466;-68
2022/02/10 10:44:47;;;;;;;46.97;42.33;;;7.70;99.90;;;;;;5032557;28;21474;-72
2022/02/10 10:50:04;;;;;;;45.70;41.03;;;7.60;99.90;;;;;;4974320;28;20481;-70
2022/02/10 10:53:01;;;;;;;44.87;40.30;;;7.70;99.90;;;;;;4973503;28;21001;-70
2022/02/10 10:55:38;;;;;;;46.50;41.90;;;7.70;99.90;;;;;;4970421;28;20498;-69
2022/02/10 10:58:13;;;;;;;47.37;42.77;;;7.60;99.90;;;;;;4969666;28;20926;-69
2022/02/10 11:38:31;;;;;;;43.07;39.47;;;7.60;99.90;;;;;;4969920;28;21127;-71
2022/02/10 11:41:36;;;;;;;43.20;39.37;;;7.70;99.90;;;;;;4970285;28;20477;-71
2022/02/10 11:44:45;;;;;;;41.53;37.57;;;7.90;99.90;;;;;;4969613;28;20857;-72
2022/02/10 12:36:25;;;;;;;42.47;38.97;;;7.60;99.90;;;;;;4973551;28;20475;-71
2022/02/10 13:24:55;;;;;;;37.30;34.33;;;7.40;99.90;;;;;;4993608;28;20496;-72
2022/02/10 14:09:48;;;;;;;31.90;29.50;;;8.30;99.90;;;;;;4971519;28;20480;-70
2022/02/10 14:12:44;;;;;;;32.47;29.90;;;8.50;99.90;;;;;;4973016;28;22337;-72
2022/02/10 14:15:22;;;;;;;33.00;29.93;;;9.00;99.90;;;;;;4973830;28;20606;-71
2022/02/10 14:18:03;;;;;;;28.10;25.73;;;9.40;99.90;;;;;;4971060;28;20509;-71
2022/02/10 14:20:40;;;;;;;29.93;27.57;;;9.30;99.90;;;;;;4971894;28;20675;-71
2022/02/10 14:23:19;;;;;;;28.20;26.20;;;9.20;99.90;;;;;;4970737;28;20462;-71
2022/02/10 14:25:53;;;;;;;28.57;26.37;;;9.10;99.90;;;;;;4971887;28;20477;-71
2022/02/10 14:28:22;;;;;;;26.00;24.17;;;9.50;99.90;;;;;;4971219;28;20871;-70
2022/02/10 14:30:50;;;;;;;26.60;24.67;;;9.90;99.90;;;;;;4971206;28;21235;-72
2022/02/10 14:33:24;;;;;;;27.77;25.57;;;9.80;99.90;;;;;;4972386;28;20474;-71
2022/02/10 14:35:55;;;;;;;27.97;25.37;;;9.60;99.90;;;;;;4972253;28;20509;-71
2022/02/10 14:38:36;;;;;;;27.20;25.10;;;9.60;99.90;;;;;;4971674;28;21188;-70
2022/02/10 14:41:35;;;;;;;28.13;25.57;;;9.20;99.90;;;;;;4972016;28;20473;-70
2022/02/10 15:15:41;;;;;;;27.50;25.20;;;8.70;99.90;;;;;;4969193;28;20985;-70
2022/02/10 15:18:07;;;;;;;29.53;26.60;;;8.70;99.90;;;;;;4970742;28;20495;-70
2022/02/10 15:54:30;;;;;;;39.83;36.60;;;8.00;99.90;;;;;;4934041;28;20469;-71
2022/02/10 16:10:59;;;;;;;39.43;35.93;;;7.70;99.90;;;;;;4973048;28;20560;-72
2022/02/10 16:18:52;;;;;;;39.80;36.20;;;7.80;99.90;;;;;;4972026;28;20911;-72
2022/02/10 16:21:30;;;;;;;41.43;37.80;;;7.70;99.90;;;;;;4973102;28;21181;-70
2022/02/10 16:24:02;;;;;;;40.33;36.57;;;7.70;99.90;;;;;;4972530;28;20885;-71
2022/02/10 16:26:39;;;;;;;39.87;36.47;;;7.80;99.90;;;;;;4974429;28;21032;-71
2022/02/10 16:29:10;;;;;;;41.43;37.77;;;7.80;99.90;;;;;;4973017;28;20539;-70
2022/02/10 16:31:37;;;;;;;38.93;35.87;;;7.70;99.90;;;;;;4971075;28;20524;-71
2022/02/10 16:34:06;;;;;;;41.43;38.33;;;7.70;99.90;;;;;;4973848;28;20568;-70
2022/02/10 16:36:33;;;;;;;41.37;37.97;;;7.70;99.90;;;;;;4973372;28;21587;-73
2022/02/10 16:39:00;;;;;;;41.57;38.30;;;7.70;99.90;;;;;;4972263;28;20470;-71
2022/02/10 16:41:28;;;;;;;40.43;37.03;;;7.70;99.90;;;;;;4973171;28;20475;-71
2022/02/10 16:43:55;;;;;;;40.97;37.47;;;7.60;99.90;;;;;;4972824;28;20616;-71
2022/02/10 16:46:23;;;;;;;43.07;39.50;;;7.60;99.90;;;;;;4973481;28;20477;-72
2022/02/10 16:48:50;;;;;;;43.10;39.73;;;7.60;99.90;;;;;;4973409;28;21660;-71
2022/02/10 16:51:19;;;;;;;42.90;39.40;;;7.60;99.90;;;;;;4973027;28;20467;-72
2022/02/10 16:53:51;;;;;;;43.10;39.60;;;7.50;99.90;;;;;;4973477;28;20491;-71
2022/02/10 16:56:22;;;;;;;45.07;41.17;;;7.50;99.90;;;;;;4971588;28;21115;-71
2022/02/10 16:59:00;;;;;;;45.07;40.87;;;7.40;99.90;;;;;;4972358;28;22354;-71
2022/02/10 17:01:46;;;;;;;43.67;39.90;;;7.40;99.90;;;;;;4971952;28;21005;-71
2022/02/10 17:20:50;;;;;;;45.50;41.13;;;7.30;99.90;;;;;;4972688;28;20522;-69
2022/02/10 17:26:16;;;;;;;43.83;39.80;;;7.10;99.90;;;;;;4966678;28;20953;-71
2022/02/10 17:28:44;;;;;;;47.30;42.90;;;7.10;99.90;;;;;;4971897;28;20470;-70
2022/02/10 17:31:40;;;;;;;46.60;42.70;;;7.10;99.90;;;;;;4974135;28;20580;-71
2022/02/10 17:34:38;;;;;;;45.47;41.63;;;7.20;99.90;;;;;;4975769;28;20467;-69
2022/02/10 17:37:14;;;;;;;44.30;40.43;;;7.10;99.90;;;;;;4976291;28;20547;-71
2022/02/10 17:45:22;;;;;;;41.30;37.63;;;7.00;99.90;;;;;;4975770;28;20458;-72
2022/02/10 17:53:24;;;;;;;50.70;42.97;;;6.90;99.90;;;;;;4960795;28;20470;-70
2022/02/10 17:55:52;;;;;;;43.67;39.37;;;6.90;99.90;;;;;;4974675;28;20497;-71
2022/02/10 17:58:22;;;;;;;43.27;39.60;;;6.90;99.90;;;;;;4974755;28;20497;-71
2022/02/10 18:00:50;;;;;;;43.27;39.40;;;6.90;99.90;;;;;;4974013;28;21176;-71
2022/02/10 18:03:17;;;;;;;42.13;38.50;;;6.80;99.90;;;;;;4975486;28;20467;-69
2022/02/10 18:06:12;;;;;;;35.97;33.17;;;6.80;99.90;;;;;;4975663;28;20472;-71
2022/02/10 18:08:45;;;;;;;38.63;35.07;;;6.70;99.90;;;;;;4974776;28;20908;-71
2022/02/10 18:13:58;;;;;;;37.87;34.77;;;6.60;99.90;;;;;;4956482;28;20501;-71
2022/02/10 18:16:29;;;;;;;39.13;35.87;;;6.60;99.90;;;;;;4974954;28;20518;-70
2022/02/10 18:19:02;;;;;;;40.00;36.60;;;6.60;99.90;;;;;;4974987;28;20483;-71
2022/02/10 18:21:51;;;;;;;38.73;35.43;;;6.50;99.90;;;;;;4975086;28;22486;-71
2022/02/10 18:24:45;;;;;;;38.10;35.10;;;6.50;99.90;;;;;;4974334;28;21104;-70
2022/02/10 18:27:27;;;;;;;37.30;33.83;;;6.50;99.90;;;;;;4974607;28;20475;-72
2022/02/10 19:03:50;;;;;;;32.77;30.50;;;5.60;99.90;;;;;;4974689;28;20477;-71
2022/02/10 19:06:26;;;;;;;31.30;28.90;;;5.40;99.90;;;;;;4974145;28;20600;-72
2022/02/10 19:09:01;;;;;;;29.67;27.67;;;5.20;99.90;;;;;;4974646;28;20535;-71
2022/02/10 19:11:29;;;;;;;30.73;28.27;;;5.10;99.90;;;;;;4973546;28;20470;-72
2022/02/10 19:13:58;;;;;;;29.90;27.77;;;5.00;99.90;;;;;;4974521;28;20596;-72
2022/02/10 19:16:25;;;;;;;29.73;27.53;;;4.90;99.90;;;;;;4974044;28;20497;-72
2022/02/10 19:18:53;;;;;;;31.97;29.47;;;4.90;99.90;;;;;;4974709;28;20968;-72
2022/02/10 19:21:20;;;;;;;30.80;28.70;;;4.90;99.90;;;;;;4974434;28;20466;-71
2022/02/10 19:23:47;;;;;;;32.17;29.70;;;4.90;99.90;;;;;;4974640;28;20987;-70
2022/02/10 19:26:14;;;;;;;28.33;26.07;;;4.90;99.90;;;;;;4974724;28;20837;-72
2022/02/10 19:28:42;;;;;;;27.20;25.30;;;4.80;99.90;;;;;;4974494;28;20463;-70
2022/02/10 19:31:16;;;;;;;28.73;26.30;;;4.80;99.90;;;;;;4973322;28;20474;-71
2022/02/10 19:33:43;;;;;;;25.37;23.60;;;4.70;99.90;;;;;;4974741;28;20557;-71
2022/02/10 19:36:10;;;;;;;28.33;26.33;;;4.70;99.90;;;;;;4973635;28;20500;-71
2022/02/10 19:38:37;;;;;;;28.30;26.20;;;4.60;99.90;;;;;;4974642;28;20929;-71
2022/02/10 19:41:04;;;;;;;28.10;26.20;;;4.60;99.90;;;;;;4972808;28;21110;-71
2022/02/10 19:43:31;;;;;;;27.77;25.70;;;4.60;99.90;;;;;;4974133;28;20787;-72
2022/02/10 19:45:59;;;;;;;28.03;26.03;;;4.60;99.90;;;;;;4973849;28;20924;-71
2022/02/10 19:48:26;;;;;;;28.40;26.20;;;4.50;99.90;;;;;;4973710;28;20473;-71
2022/02/10 19:50:54;;;;;;;28.50;26.40;;;4.50;99.90;;;;;;4974202;28;20893;-72
2022/02/10 19:53:22;;;;;;;43.07;28.00;;;4.50;99.90;;;;;;4972350;28;20481;-72
2022/02/10 19:55:51;;;;;;;28.77;26.87;;;4.40;99.90;;;;;;4973272;28;20499;-71
2022/02/10 19:58:22;;;;;;;30.13;27.87;;;4.40;99.90;;;;;;4972375;28;20563;-72
2022/02/10 20:00:52;;;;;;;26.73;25.13;;;4.40;99.90;;;;;;4972876;28;20479;-73
2022/02/10 20:03:22;;;;;;;27.27;25.57;;;4.30;99.90;;;;;;4973724;28;21071;-72
2022/02/10 20:05:51;;;;;;;28.77;26.67;;;4.20;99.90;;;;;;4973988;28;20494;-71
2022/02/10 20:08:20;;;;;;;28.37;26.37;;;4.20;99.90;;;;;;4973500;28;20490;-72
2022/02/10 20:10:50;;;;;;;27.50;25.60;;;4.10;99.90;;;;;;4974264;28;20946;-72
2022/02/10 20:13:17;;;;;;;27.73;25.93;;;4.20;99.90;;;;;;4973213;28;20505;-72
2022/02/10 20:15:46;;;;;;;26.67;25.10;;;4.10;99.90;;;;;;4973243;28;20505;-71
2022/02/10 20:18:14;;;;;;;28.30;26.40;;;4.00;99.90;;;;;;4973252;28;21038;-72
2022/02/10 20:20:43;;;;;;;28.80;26.90;;;4.00;99.90;;;;;;4973626;28;20461;-72
2022/02/10 20:23:10;;;;;;;27.90;26.17;;;4.00;99.90;;;;;;4976491;28;20494;-72
2022/02/10 20:25:38;;;;;;;26.97;25.13;;;4.00;99.90;;;;;;4977322;28;20479;-72
2022/02/10 20:28:09;;;;;;;27.70;25.90;;;4.00;99.90;;;;;;4977205;28;20466;-72
2022/02/10 20:30:36;;;;;;;29.87;27.83;;;3.90;99.90;;;;;;4976655;28;20494;-72
2022/02/10 20:33:03;;;;;;;26.97;25.10;;;3.90;99.90;;;;;;4976410;28;20464;-72
2022/02/10 20:35:30;;;;;;;25.67;24.07;;;3.90;99.90;;;;;;4976879;28;20549;-72
2022/02/10 20:38:01;;;;;;;27.57;25.40;;;3.90;99.90;;;;;;4976423;28;20513;-72
2022/02/10 20:40:29;;;;;;;26.70;25.20;;;3.90;99.90;;;;;;4976076;28;22187;-72
2022/02/10 20:43:03;;;;;;;26.80;25.20;;;3.80;99.90;;;;;;4977157;28;20466;-71
2022/02/10 20:45:31;;;;;;;26.97;24.97;;;3.70;99.90;;;;;;4976156;28;20462;-71
2022/02/10 20:47:59;;;;;;;27.00;25.30;;;3.60;99.90;;;;;;4976661;28;22562;-71
2022/02/10 20:50:40;;;;;;;27.27;25.67;;;3.60;99.90;;;;;;4976269;28;20549;-72
2022/02/10 20:53:08;;;;;;;27.83;26.10;;;3.60;99.90;;;;;;4975554;28;20478;-71
2022/02/10 20:55:35;;;;;;;27.27;25.57;;;3.70;99.90;;;;;;4976290;28;20797;-72
2022/02/10 20:58:02;;;;;;;28.30;26.67;;;3.70;99.90;;;;;;4976046;28;20849;-72
2022/02/10 21:00:31;;;;;;;28.03;26.33;;;3.70;99.90;;;;;;4976107;28;20645;-72
2022/02/10 21:02:58;;;;;;;29.07;27.37;;;3.70;99.90;;;;;;4973869;28;20476;-72
2022/02/10 21:05:32;;;;;;;30.20;28.27;;;3.70;99.90;;;;;;4973160;28;21072;-71
2022/02/10 21:08:03;;;;;;;31.27;28.93;;;3.60;99.90;;;;;;4974066;28;20470;-72
2022/02/10 21:10:31;;;;;;;32.33;30.00;;;3.70;99.90;;;;;;4976276;28;21100;-72
2022/02/10 21:12:58;;;;;;;30.43;28.37;;;3.90;99.90;;;;;;4974745;28;20570;-71
2022/02/10 21:15:29;;;;;;;31.40;29.50;;;3.90;99.90;;;;;;4976774;28;21325;-71
2022/02/10 21:18:01;;;;;;;30.50;28.60;;;3.90;99.90;;;;;;4975378;28;21586;-71
2022/02/10 21:20:31;;;;;;;31.40;29.50;;;3.80;99.90;;;;;;4972741;28;20532;-72
2022/02/10 21:23:05;;;;;;;32.97;30.50;;;3.80;99.90;;;;;;4975595;28;20559;-71
2022/02/10 21:25:37;;;;;;;33.17;30.87;;;3.80;99.90;;;;;;4976543;28;20570;-70
2022/02/10 21:28:14;;;;;;;32.30;30.30;;;3.90;99.90;;;;;;4976437;28;20835;-72
2022/02/10 21:30:41;;;;;;;32.40;30.00;;;3.80;99.90;;;;;;4975532;28;20651;-71
2022/02/10 21:33:14;;;;;;;32.10;29.97;;;3.80;99.90;;;;;;4976094;28;20502;-73
2022/02/10 21:36:03;;;;;;;33.03;30.67;;;3.80;99.90;;;;;;4976541;28;20617;-71
2022/02/10 21:38:31;;;;;;;36.90;34.33;;;3.90;99.90;;;;;;4976281;28;20480;-70
2022/02/10 21:41:28;;;;;;;35.17;32.57;;;3.70;99.90;;;;;;4972766;28;20951;-72
2022/02/10 21:55:16;;;;;;;33.07;31.00;;;3.80;99.90;;;;;;4976754;28;20574;-71
2022/02/10 21:58:31;;;;;;;31.40;29.33;;;3.80;99.90;;;;;;4975242;28;21154;-72
2022/02/10 22:04:07;;;;;;;31.40;29.13;;;3.80;99.90;;;;;;4952672;28;20596;-71
2022/02/10 22:09:30;;;;;;;34.23;32.10;;;3.80;99.90;;;;;;4972977;28;20488;-73
2022/02/10 22:12:09;;;;;;;33.00;30.80;;;3.80;99.90;;;;;;4972402;28;20485;-72
2022/02/10 22:17:50;;;;;;;31.47;29.67;;;3.90;99.90;;;;;;4976467;28;22063;-72
2022/02/10 22:20:21;;;;;;;33.70;31.70;;;3.70;99.90;;;;;;4973160;28;21232;-71
2022/02/10 22:23:02;;;;;;;36.40;34.10;;;3.60;99.90;;;;;;4974309;28;20515;-71
2022/02/10 22:25:29;;;;;;;36.27;33.47;;;3.70;99.90;;;;;;4974056;28;21018;-72
2022/02/10 22:28:02;;;;;;;34.20;31.80;;;3.70;99.90;;;;;;4974951;28;20970;-71
2022/02/10 22:30:42;;;;;;;33.83;31.90;;;3.60;99.90;;;;;;4974350;28;20475;-70
2022/02/10 22:33:20;;;;;;;35.27;33.00;;;3.70;99.90;;;;;;4976547;28;20470;-71
2022/02/10 22:35:49;;;;;;;33.07;31.07;;;3.70;99.90;;;;;;4976390;28;20469;-72
2022/02/10 22:38:20;;;;;;;31.90;29.90;;;3.70;99.90;;;;;;4976270;28;20585;-71
2022/02/10 22:41:00;;;;;;;33.83;31.73;;;3.70;99.90;;;;;;4976127;28;20469;-71
2022/02/10 22:43:27;;;;;;;32.33;30.43;;;3.70;99.90;;;;;;4976438;28;20550;-72
2022/02/10 22:45:55;;;;;;;34.13;32.13;;;3.70;99.90;;;;;;4976751;28;20812;-71
2022/02/10 22:48:22;;;;;;;36.00;33.80;;;3.70;99.90;;;;;;4976857;28;20469;-71
2022/02/10 22:50:50;;;;;;;36.30;34.10;;;3.70;99.90;;;;;;4975383;28;20455;-71
2022/02/10 22:53:17;;;;;;;35.37;32.77;;;3.60;99.90;;;;;;4977253;28;20478;-71
2022/02/10 22:55:44;;;;;;;35.70;33.07;;;3.60;99.90;;;;;;4976327;28;20465;-70
2022/02/10 22:58:10;;;;;;;36.97;34.33;;;3.50;99.90;;;;;;4975962;28;20492;-72
2022/02/10 23:00:46;;;;;;;38.00;35.20;;;3.60;99.90;;;;;;4975632;28;20698;-71
2022/02/10 23:03:15;;;;;;;35.33;33.13;;;3.60;99.90;;;;;;4976341;28;20853;-70
2022/02/10 23:05:41;;;;;;;35.30;33.20;;;3.70;99.90;;;;;;4976187;28;20474;-72
2022/02/10 23:08:09;;;;;;;36.23;33.83;;;3.60;99.90;;;;;;4976639;28;20459;-72
2022/02/10 23:10:43;;;;;;;35.47;33.30;;;3.60;99.90;;;;;;4975775;28;20472;-71
2022/02/10 23:13:10;;;;;;;36.60;34.00;;;3.60;99.90;;;;;;4976246;28;21303;-70
2022/02/10 23:15:38;;;;;;;36.63;34.03;;;3.50;99.90;;;;;;4976922;28;20469;-69
2022/02/10 23:18:07;;;;;;;36.90;34.40;;;3.50;99.90;;;;;;4976190;28;20789;-70
2022/02/10 23:20:35;;;;;;;39.30;36.80;;;3.50;99.90;;;;;;4975870;28;20494;-71
2022/02/10 23:23:03;;;;;;;47.37;44.27;;;3.30;99.90;;;;;;4975740;28;20806;-70
2022/02/10 23:25:30;;;;;;;46.30;43.33;;;3.40;99.90;;;;;;4976775;28;21220;-71
2022/02/10 23:27:57;;;;;;;43.23;40.40;;;3.40;99.90;;;;;;4975825;28;20459;-72
2022/02/10 23:30:25;;;;;;;41.90;39.20;;;3.40;99.90;;;;;;4975643;28;20458;-71
2022/02/10 23:32:56;;;;;;;44.17;41.37;;;3.40;99.90;;;;;;4984984;28;20498;-71
2022/02/10 23:36:04;;;;;;;43.30;40.60;;;3.40;99.90;;;;;;4991476;28;20562;-70
2022/02/10 23:38:22;;;;;;;39.83;37.33;;;3.40;99.90;;;;;;4975051;28;20591;-71
2022/02/10 23:41:15;;;;;;;40.13;37.47;;;3.40;99.90;;;;;;4975520;28;21038;-70
2022/02/10 23:43:41;;;;;;;40.83;38.13;;;3.40;99.90;;;;;;4974307;28;20876;-71
2022/02/10 23:46:08;;;;;;;40.20;37.60;;;3.50;99.90;;;;;;4985568;28;20554;-70
2022/02/10 23:48:35;;;;;;;39.67;37.27;;;3.40;99.90;;;;;;4996590;28;20880;-70
2022/02/10 23:51:02;;;;;;;39.70;37.20;;;3.40;99.90;;;;;;5007148;28;20577;-71
2022/02/10 23:53:31;;;;;;;40.00;37.30;;;3.30;99.90;;;;;;4995481;28;20477;-71
2022/02/10 23:55:59;;;;;;;37.37;34.97;;;3.30;99.90;;;;;;4975660;28;20470;-71
2022/02/10 23:58:34;;;;;;;38.73;36.13;;;3.30;99.90;;;;;;4985279;28;20486;-71
